createdAt,value
2018-04-17T00:00:14.665Z,1014.29
2018-04-17T00:01:14.688Z,1014.35
2018-04-17T00:02:14.707Z,1014.32
2018-04-17T00:03:14.729Z,1014.36
2018-04-17T00:04:14.740Z,1014.25
2018-04-17T00:05:14.759Z,1014.26
2018-04-17T00:06:14.793Z,1014.31
2018-04-17T00:07:14.801Z,1014.33
2018-04-17T00:08:14.822Z,1014.31
2018-04-17T00:09:14.832Z,1014.36
2018-04-17T00:10:14.854Z,1014.39
2018-04-17T00:11:14.876Z,1014.43
2018-04-17T00:12:14.896Z,1014.46
2018-04-17T00:13:14.905Z,1014.45
2018-04-17T00:14:14.930Z,1014.52
2018-04-17T00:15:14.947Z,1014.48
2018-04-17T00:16:14.968Z,1014.53
2018-04-17T00:17:14.991Z,1014.49
2018-04-17T00:18:14.999Z,1014.54
2018-04-17T00:19:15.021Z,1014.51
2018-04-17T00:20:15.042Z,1014.51
2018-04-17T00:21:15.064Z,1014.51
2018-04-17T00:22:15.084Z,1014.51
2018-04-17T00:23:15.092Z,1014.49
2018-04-17T00:24:15.115Z,1014.54
2018-04-17T00:25:15.135Z,1014.55
2018-04-17T00:26:15.164Z,1014.56
2018-04-17T00:27:15.167Z,1014.56
2018-04-17T00:28:15.188Z,1014.58
2018-04-17T00:29:15.209Z,1014.56
2018-04-17T00:30:15.230Z,1014.61
2018-04-17T00:31:15.252Z,1014.59
2018-04-17T00:32:15.260Z,1014.65
2018-04-17T00:33:15.281Z,1014.69
2018-04-17T00:34:15.303Z,1014.73
2018-04-17T00:35:15.324Z,1014.71
2018-04-17T00:36:15.346Z,1014.77
2018-04-17T00:37:15.355Z,1014.76
2018-04-17T00:38:15.376Z,1014.77
2018-04-17T00:39:15.400Z,1014.75
2018-04-17T00:40:15.419Z,1014.77
2018-04-17T00:41:15.427Z,1014.77
2018-04-17T00:42:15.462Z,1014.80
2018-04-17T00:43:15.469Z,1014.80
2018-04-17T00:44:15.492Z,1014.87
2018-04-17T00:45:15.501Z,1014.92
2018-04-17T00:46:15.523Z,1015.02
2018-04-17T00:47:15.544Z,1015.05
2018-04-17T00:48:15.567Z,1015.08
2018-04-17T00:49:15.575Z,1015.07
2018-04-17T00:50:15.596Z,1015.16
2018-04-17T00:51:15.618Z,1015.14
2018-04-17T00:52:15.639Z,1015.17
2018-04-17T00:53:15.661Z,1015.13
2018-04-17T00:54:15.670Z,1015.14
2018-04-17T00:55:15.692Z,1015.13
2018-04-17T00:56:15.713Z,1015.17
2018-04-17T00:57:15.735Z,1015.19
2018-04-17T00:58:15.743Z,1015.16
2018-04-17T00:59:15.764Z,1015.21
2018-04-17T01:00:15.786Z,1015.19
2018-04-17T01:01:15.807Z,1015.15
2018-04-17T01:02:15.820Z,1015.17
2018-04-17T01:03:15.838Z,1015.12
2018-04-17T01:04:15.860Z,1015.18
2018-04-17T01:05:15.881Z,1015.18
2018-04-17T01:06:15.889Z,1015.17
2018-04-17T01:07:15.911Z,1015.21
2018-04-17T01:08:15.932Z,1015.19
2018-04-17T01:09:15.954Z,1015.22
2018-04-17T01:10:15.964Z,1015.21
2018-04-17T01:11:15.985Z,1015.17
2018-04-17T01:12:16.005Z,1015.23
2018-04-17T01:13:16.015Z,1015.26
2018-04-17T01:14:16.036Z,1015.26
2018-04-17T01:15:16.058Z,1015.26
2018-04-17T01:16:16.079Z,1015.24
2018-04-17T01:17:16.088Z,1015.24
2018-04-17T01:18:16.109Z,1015.25
2018-04-17T01:19:16.131Z,1015.26
2018-04-17T01:20:16.175Z,1015.28
2018-04-17T01:21:16.160Z,1015.31
2018-04-17T01:22:16.182Z,1015.34
2018-04-17T01:23:16.204Z,1015.36
2018-04-17T01:24:16.224Z,1015.35
2018-04-17T01:25:16.236Z,1015.37
2018-04-17T01:26:16.256Z,1015.39
2018-04-17T01:27:16.280Z,1015.37
2018-04-17T01:28:16.286Z,1015.35
2018-04-17T01:29:16.306Z,1015.38
2018-04-17T01:30:16.328Z,1015.39
2018-04-17T01:31:16.362Z,1015.38
2018-04-17T01:32:16.360Z,1015.43
2018-04-17T01:33:16.385Z,1015.45
2018-04-17T01:34:16.402Z,1015.43
2018-04-17T01:35:16.423Z,1015.45
2018-04-17T01:36:16.430Z,1015.50
2018-04-17T01:37:16.452Z,1015.50
2018-04-17T01:38:16.473Z,1015.48
2018-04-17T01:39:16.484Z,1015.52
2018-04-17T01:40:16.504Z,1015.54
2018-04-17T01:41:16.526Z,1015.53
2018-04-17T01:42:16.534Z,1015.50
2018-04-17T01:43:16.555Z,1015.50
2018-04-17T01:44:16.577Z,1015.47
2018-04-17T01:45:16.612Z,1015.45
2018-04-17T01:46:16.607Z,1015.43
2018-04-17T01:47:16.628Z,1015.41
2018-04-17T01:48:16.652Z,1015.41
2018-04-17T01:49:16.659Z,1015.45
2018-04-17T01:50:16.680Z,1015.46
2018-04-17T01:51:16.702Z,1015.45
2018-04-17T01:52:16.712Z,1015.47
2018-04-17T01:53:16.735Z,1015.49
2018-04-17T01:54:16.755Z,1015.50
2018-04-17T01:55:16.776Z,1015.49
2018-04-17T01:56:16.842Z,1015.52
2018-04-17T01:57:16.810Z,1015.56
2018-04-17T01:58:16.830Z,1015.57
2018-04-17T01:59:16.844Z,1015.58
2018-04-17T02:00:16.860Z,1015.58
2018-04-17T02:01:16.885Z,1015.60
2018-04-17T02:02:16.894Z,1015.59
2018-04-17T02:03:16.912Z,1015.58
2018-04-17T02:04:16.933Z,1015.56
2018-04-17T02:05:16.942Z,1015.55
2018-04-17T02:06:16.963Z,1015.56
2018-04-17T02:07:16.985Z,1015.60
2018-04-17T02:08:17.006Z,1015.56
2018-04-17T02:09:17.015Z,1015.59
2018-04-17T02:10:17.037Z,1015.56
2018-04-17T02:11:17.057Z,1015.60
2018-04-17T02:12:17.068Z,1015.60
2018-04-17T02:13:17.093Z,1015.62
2018-04-17T02:14:17.109Z,1015.58
2018-04-17T02:15:17.118Z,1015.61
2018-04-17T02:16:17.139Z,1015.64
2018-04-17T02:17:17.162Z,1015.62
2018-04-17T02:18:17.171Z,1015.69
2018-04-17T02:19:17.192Z,1015.71
2018-04-17T02:20:17.213Z,1015.80
2018-04-17T02:21:17.222Z,1015.81
2018-04-17T02:22:17.243Z,1015.83
2018-04-17T02:23:17.264Z,1015.88
2018-04-17T02:24:17.275Z,1015.93
2018-04-17T02:25:17.294Z,1015.86
2018-04-17T02:26:17.323Z,1015.88
2018-04-17T02:27:17.327Z,1015.88
2018-04-17T02:28:17.346Z,1015.89
2018-04-17T02:29:17.411Z,1015.91
2018-04-17T02:30:17.390Z,1015.86
2018-04-17T02:31:17.399Z,1015.88
2018-04-17T02:32:17.423Z,1015.95
2018-04-17T02:33:17.430Z,1015.94
2018-04-17T02:34:17.452Z,1015.92
2018-04-17T02:35:17.472Z,1015.93
2018-04-17T02:36:17.493Z,1015.88
2018-04-17T02:37:17.503Z,1015.90
2018-04-17T02:38:17.524Z,1015.92
2018-04-17T02:39:17.545Z,1015.93
2018-04-17T02:40:17.553Z,1015.90
2018-04-17T02:41:17.575Z,1015.90
2018-04-17T02:42:17.596Z,1015.95
2018-04-17T02:43:17.606Z,1015.94
2018-04-17T02:44:17.627Z,1015.94
2018-04-17T02:45:17.636Z,1015.91
2018-04-17T02:46:17.662Z,1015.98
2018-04-17T02:47:17.677Z,1015.94
2018-04-17T02:48:17.700Z,1015.95
2018-04-17T02:49:17.709Z,1015.93
2018-04-17T02:50:17.730Z,1016.00
2018-04-17T02:51:17.740Z,1015.97
2018-04-17T02:52:17.759Z,1015.99
2018-04-17T02:53:17.781Z,1015.99
2018-04-17T02:54:17.791Z,1015.96
2018-04-17T02:55:17.812Z,1015.98
2018-04-17T02:56:17.834Z,1015.97
2018-04-17T02:57:17.855Z,1015.96
2018-04-17T02:58:17.862Z,1015.97
2018-04-17T02:59:17.884Z,1015.96
2018-04-17T03:00:17.894Z,1016.00
2018-04-17T03:01:17.914Z,1016.03
2018-04-17T03:02:17.936Z,1016.04
2018-04-17T03:03:17.943Z,1016.05
2018-04-17T03:04:17.964Z,1016.04
2018-04-17T03:05:17.987Z,1016.03
2018-04-17T03:06:17.995Z,1016.07
2018-04-17T03:07:18.018Z,1016.04
2018-04-17T03:08:18.039Z,1016.06
2018-04-17T03:09:18.046Z,1016.02
2018-04-17T03:10:18.081Z,1016.07
2018-04-17T03:11:18.089Z,1016.10
2018-04-17T03:12:18.099Z,1016.09
2018-04-17T03:13:18.120Z,1016.10
2018-04-17T03:14:18.130Z,1016.09
2018-04-17T03:15:18.150Z,1016.07
2018-04-17T03:16:18.172Z,1016.07
2018-04-17T03:17:18.181Z,1016.10
2018-04-17T03:18:18.202Z,1016.12
2018-04-17T03:19:18.224Z,1016.15
2018-04-17T03:20:18.232Z,1016.15
2018-04-17T03:21:18.253Z,1016.20
2018-04-17T03:22:18.275Z,1016.17
2018-04-17T03:23:18.284Z,1016.18
2018-04-17T03:24:18.307Z,1016.21
2018-04-17T03:25:18.316Z,1016.24
2018-04-17T03:26:18.337Z,1016.30
2018-04-17T03:27:18.359Z,1016.29
2018-04-17T03:28:18.367Z,1016.34
2018-04-17T03:29:18.389Z,1016.32
2018-04-17T03:30:18.412Z,1016.33
2018-04-17T03:31:18.418Z,1016.39
2018-04-17T03:32:18.440Z,1016.36
2018-04-17T03:33:18.460Z,1016.36
2018-04-17T03:34:18.469Z,1016.36
2018-04-17T03:35:18.491Z,1016.41
2018-04-17T03:36:18.512Z,1016.42
2018-04-17T03:37:18.520Z,1016.43
2018-04-17T03:38:18.542Z,1016.43
2018-04-17T03:39:18.583Z,1016.46
2018-04-17T03:40:18.572Z,1016.46
2018-04-17T03:41:18.593Z,1016.42
2018-04-17T03:42:18.615Z,1016.45
2018-04-17T03:43:18.623Z,1016.41
2018-04-17T03:44:18.645Z,1016.39
2018-04-17T03:45:18.654Z,1016.42
2018-04-17T03:46:18.676Z,1016.42
2018-04-17T03:47:18.684Z,1016.42
2018-04-17T03:48:18.704Z,1016.43
2018-04-17T03:49:18.731Z,1016.44
2018-04-17T03:50:18.737Z,1016.46
2018-04-17T03:51:18.757Z,1016.47
2018-04-17T03:52:18.778Z,1016.51
2018-04-17T03:53:18.786Z,1016.55
2018-04-17T03:54:18.808Z,1016.59
2018-04-17T03:55:18.818Z,1016.54
2018-04-17T03:56:18.839Z,1016.57
2018-04-17T03:57:18.860Z,1016.54
2018-04-17T03:58:18.871Z,1016.54
2018-04-17T03:59:18.891Z,1016.56
2018-04-17T04:00:18.913Z,1016.56
2018-04-17T04:01:18.921Z,1016.55
2018-04-17T04:02:18.942Z,1016.58
2018-04-17T04:03:18.951Z,1016.59
2018-04-17T04:04:18.972Z,1016.60
2018-04-17T04:05:18.992Z,1016.60
2018-04-17T04:06:19.004Z,1016.58
2018-04-17T04:07:19.024Z,1016.63
2018-04-17T04:08:19.045Z,1016.60
2018-04-17T04:09:19.053Z,1016.62
2018-04-17T04:10:19.074Z,1016.64
2018-04-17T04:11:19.084Z,1016.66
2018-04-17T04:12:19.108Z,1016.66
2018-04-17T04:13:19.127Z,1016.66
2018-04-17T04:14:19.135Z,1016.67
2018-04-17T04:15:19.157Z,1016.71
2018-04-17T04:16:19.178Z,1016.72
2018-04-17T04:17:19.188Z,1016.72
2018-04-17T04:18:19.212Z,1016.77
2018-04-17T04:19:19.217Z,1016.80
2018-04-17T04:20:19.239Z,1016.80
2018-04-17T04:21:19.260Z,1016.80
2018-04-17T04:22:19.270Z,1016.89
2018-04-17T04:23:19.299Z,1016.86
2018-04-17T04:24:19.300Z,1016.92
2018-04-17T04:25:19.320Z,1016.92
2018-04-17T04:26:19.342Z,1016.93
2018-04-17T04:27:19.352Z,1016.93
2018-04-17T04:28:19.372Z,1016.87
2018-04-17T04:29:19.383Z,1016.89
2018-04-17T04:30:19.417Z,1016.90
2018-04-17T04:31:19.424Z,1016.93
2018-04-17T04:32:19.433Z,1016.94
2018-04-17T04:33:19.455Z,1016.96
2018-04-17T04:34:19.475Z,1016.99
2018-04-17T04:35:19.484Z,1017.00
2018-04-17T04:36:19.518Z,1017.01
2018-04-17T04:37:19.516Z,1017.05
2018-04-17T04:38:19.536Z,1017.03
2018-04-17T04:39:19.557Z,1017.07
2018-04-17T04:40:19.566Z,1017.05
2018-04-17T04:41:19.588Z,1017.08
2018-04-17T04:42:19.609Z,1017.13
2018-04-17T04:43:19.619Z,1017.12
2018-04-17T04:44:19.640Z,1017.13
2018-04-17T04:45:19.662Z,1017.14
2018-04-17T04:46:19.670Z,1017.18
2018-04-17T04:47:19.691Z,1017.18
2018-04-17T04:48:19.701Z,1017.17
2018-04-17T04:49:19.722Z,1017.23
2018-04-17T04:50:19.745Z,1017.23
2018-04-17T04:51:19.752Z,1017.25
2018-04-17T04:52:19.777Z,1017.30
2018-04-17T04:53:19.799Z,1017.31
2018-04-17T04:54:19.805Z,1017.31
2018-04-17T04:55:19.826Z,1017.36
2018-04-17T04:56:19.847Z,1017.36
2018-04-17T04:57:19.855Z,1017.39
2018-04-17T04:58:19.889Z,1017.44
2018-04-17T04:59:19.886Z,1017.44
2018-04-17T05:00:19.909Z,1017.50
2018-04-17T05:01:19.929Z,1017.51
2018-04-17T05:02:19.951Z,1017.51
2018-04-17T05:03:19.964Z,1017.56
2018-04-17T05:04:19.981Z,1017.58
2018-04-17T05:05:19.990Z,1017.61
2018-04-17T05:06:20.011Z,1017.57
2018-04-17T05:07:20.033Z,1017.57
2018-04-17T05:08:20.041Z,1017.60
2018-04-17T05:09:20.066Z,1017.58
2018-04-17T05:10:20.083Z,1017.61
2018-04-17T05:11:20.093Z,1017.64
2018-04-17T05:12:20.116Z,1017.69
2018-04-17T05:13:20.135Z,1017.72
2018-04-17T05:14:20.144Z,1017.77
2018-04-17T05:15:20.178Z,1017.80
2018-04-17T05:16:20.188Z,1017.81
2018-04-17T05:17:20.197Z,1017.84
2018-04-17T05:18:20.219Z,1017.84
2018-04-17T05:19:20.240Z,1017.87
2018-04-17T05:20:20.248Z,1017.91
2018-04-17T05:21:20.269Z,1017.90
2018-04-17T05:22:20.291Z,1017.95
2018-04-17T05:23:20.300Z,1017.93
2018-04-17T05:24:20.323Z,1017.97
2018-04-17T05:25:20.343Z,1017.97
2018-04-17T05:26:20.352Z,1018.05
2018-04-17T05:27:20.373Z,1018.07
2018-04-17T05:28:20.396Z,1018.08
2018-04-17T05:29:20.405Z,1018.11
2018-04-17T05:30:20.426Z,1018.09
2018-04-17T05:31:20.447Z,1018.17
2018-04-17T05:32:20.468Z,1018.17
2018-04-17T05:33:20.476Z,1018.22
2018-04-17T05:34:20.497Z,1018.23
2018-04-17T05:35:20.519Z,1018.23
2018-04-17T05:36:20.529Z,1018.25
2018-04-17T05:37:20.551Z,1018.26
2018-04-17T05:38:20.603Z,1018.27
2018-04-17T05:39:20.580Z,1018.27
2018-04-17T05:40:20.601Z,1018.32
2018-04-17T05:41:20.624Z,1018.33
2018-04-17T05:42:20.657Z,1018.36
2018-04-17T05:43:20.653Z,1018.38
2018-04-17T05:44:20.674Z,1018.41
2018-04-17T05:45:20.696Z,1018.47
2018-04-17T05:46:20.718Z,1018.47
2018-04-17T05:47:20.726Z,1018.49
2018-04-17T05:48:20.748Z,1018.51
2018-04-17T05:49:20.769Z,1018.55
2018-04-17T05:50:20.779Z,1018.60
2018-04-17T05:51:20.800Z,1018.62
2018-04-17T05:52:20.821Z,1018.66
2018-04-17T05:53:20.844Z,1018.67
2018-04-17T05:54:20.852Z,1018.63
2018-04-17T05:55:20.872Z,1018.63
2018-04-17T05:56:20.894Z,1018.69
2018-04-17T05:57:20.915Z,1018.67
2018-04-17T05:58:20.937Z,1018.64
2018-04-17T05:59:20.947Z,1018.66
2018-04-17T06:00:20.980Z,1018.64
2018-04-17T06:01:20.990Z,1018.71
2018-04-17T06:02:21.010Z,1018.71
2018-04-17T06:03:21.021Z,1018.77
2018-04-17T06:04:21.043Z,1018.77
2018-04-17T06:05:21.061Z,1018.79
2018-04-17T06:06:21.084Z,1018.77
2018-04-17T06:07:21.104Z,1018.81
2018-04-17T06:08:21.117Z,1018.86
2018-04-17T06:09:21.135Z,1018.86
2018-04-17T06:10:21.157Z,1018.89
2018-04-17T06:11:21.178Z,1018.91
2018-04-17T06:12:21.200Z,1019.02
2018-04-17T06:13:21.207Z,1019.01
2018-04-17T06:14:21.231Z,1019.03
2018-04-17T06:15:21.250Z,1019.06
2018-04-17T06:16:21.271Z,1019.10
2018-04-17T06:17:21.297Z,1019.07
2018-04-17T06:18:21.314Z,1019.08
2018-04-17T06:19:21.326Z,1019.05
2018-04-17T06:20:21.345Z,1019.06
2018-04-17T06:21:21.367Z,1019.04
2018-04-17T06:22:21.389Z,1019.04
2018-04-17T06:23:21.422Z,1019.09
2018-04-17T06:24:21.432Z,1019.14
2018-04-17T06:25:21.453Z,1019.17
2018-04-17T06:26:21.463Z,1019.11
2018-04-17T06:27:21.482Z,1019.13
2018-04-17T06:28:21.506Z,1019.17
2018-04-17T06:29:21.525Z,1019.17
2018-04-17T06:30:21.562Z,1019.21
2018-04-17T06:31:21.581Z,1019.27
2018-04-17T06:32:21.589Z,1019.27
2018-04-17T06:33:21.610Z,1019.27
2018-04-17T06:34:21.631Z,1019.28
2018-04-17T06:35:21.652Z,1019.32
2018-04-17T06:36:21.675Z,1019.30
2018-04-17T06:37:21.684Z,1019.31
2018-04-17T06:38:21.705Z,1019.33
2018-04-17T06:39:21.727Z,1019.32
2018-04-17T06:40:21.748Z,1019.36
2018-04-17T06:41:21.795Z,1019.41
2018-04-17T06:42:21.793Z,1019.42
2018-04-17T06:43:21.812Z,1019.46
2018-04-17T06:44:21.833Z,1019.48
2018-04-17T06:45:21.855Z,1019.45
2018-04-17T06:46:21.885Z,1019.47
2018-04-17T06:47:21.920Z,1019.43
2018-04-17T06:48:21.919Z,1019.48
2018-04-17T06:49:21.940Z,1019.48
2018-04-17T06:50:21.962Z,1019.56
2018-04-17T06:51:21.983Z,1019.53
2018-04-17T06:52:22.006Z,1019.56
2018-04-17T06:53:22.028Z,1019.59
2018-04-17T06:54:22.048Z,1019.63
2018-04-17T06:55:22.121Z,1019.61
2018-04-17T06:56:22.090Z,1019.65
2018-04-17T06:57:22.114Z,1019.67
2018-04-17T06:58:22.134Z,1019.62
2018-04-17T06:59:22.155Z,1019.68
2018-04-17T07:00:22.192Z,1019.64
2018-04-17T07:01:22.197Z,1019.63
2018-04-17T07:02:22.219Z,1019.62
2018-04-17T07:03:22.301Z,1019.61
2018-04-17T07:04:22.265Z,1019.64
2018-04-17T07:05:22.293Z,1019.63
2018-04-17T07:06:22.304Z,1019.67
2018-04-17T07:07:22.325Z,1019.70
2018-04-17T07:08:22.347Z,1019.64
2018-04-17T07:09:22.368Z,1019.69
2018-04-17T07:10:22.402Z,1019.69
2018-04-17T07:11:22.423Z,1019.67
2018-04-17T07:12:22.444Z,1019.73
2018-04-17T07:13:22.471Z,1019.75
2018-04-17T07:14:22.488Z,1019.74
2018-04-17T07:15:22.508Z,1019.78
2018-04-17T07:16:22.543Z,1019.83
2018-04-17T07:17:22.552Z,1019.84
2018-04-17T07:18:22.578Z,1019.89
2018-04-17T07:19:22.608Z,1019.91
2018-04-17T07:20:22.629Z,1019.93
2018-04-17T07:21:22.651Z,1019.91
2018-04-17T07:22:22.672Z,1019.94
2018-04-17T07:23:22.693Z,1019.97
2018-04-17T07:24:22.717Z,1019.97
2018-04-17T07:25:22.736Z,1019.95
2018-04-17T07:26:22.769Z,1019.99
2018-04-17T07:27:22.791Z,1019.98
2018-04-17T07:28:22.812Z,1020.05
2018-04-17T07:29:22.861Z,1020.06
2018-04-17T07:30:22.868Z,1020.07
2018-04-17T07:31:22.878Z,1020.10
2018-04-17T07:32:22.911Z,1020.13
2018-04-17T07:33:22.932Z,1020.16
2018-04-17T07:34:22.954Z,1020.21
2018-04-17T07:35:22.975Z,1020.21
2018-04-17T07:36:23.008Z,1020.18
2018-04-17T07:37:23.330Z,1020.18
2018-04-17T07:38:23.064Z,1020.21
2018-04-17T07:39:23.072Z,1020.15
2018-04-17T07:40:23.146Z,1020.12
2018-04-17T07:41:23.129Z,1020.08
2018-04-17T07:42:23.178Z,1020.07
2018-04-17T07:43:23.171Z,1020.05
2018-04-17T07:44:23.204Z,1020.06
2018-04-17T07:45:23.225Z,1020.06
2018-04-17T07:46:23.248Z,1020.13
2018-04-17T07:47:23.295Z,1020.07
2018-04-17T07:48:23.304Z,1020.07
2018-04-17T07:49:23.324Z,1020.07
2018-04-17T07:50:23.347Z,1020.13
2018-04-17T07:51:23.379Z,1020.10
2018-04-17T07:52:23.413Z,1020.11
2018-04-17T07:53:23.422Z,1020.15
2018-04-17T07:54:23.461Z,1020.13
2018-04-17T07:55:23.479Z,1020.15
2018-04-17T07:56:23.511Z,1020.14
2018-04-17T07:57:23.533Z,1020.15
2018-04-17T07:58:23.557Z,1020.11
2018-04-17T07:59:23.590Z,1020.15
2018-04-17T08:00:23.610Z,1020.16
2018-04-17T08:01:23.631Z,1020.16
2018-04-17T08:02:23.664Z,1020.14
2018-04-17T08:03:23.685Z,1020.16
2018-04-17T08:04:23.723Z,1020.23
2018-04-17T08:05:23.742Z,1020.19
2018-04-17T08:06:23.763Z,1020.25
2018-04-17T08:07:23.800Z,1020.23
2018-04-17T08:08:23.818Z,1020.28
2018-04-17T08:09:23.840Z,1020.30
2018-04-17T08:10:23.860Z,1020.25
2018-04-17T08:11:23.896Z,1020.27
2018-04-17T08:12:23.917Z,1020.30
2018-04-17T08:13:23.938Z,1020.31
2018-04-17T08:14:23.959Z,1020.31
2018-04-17T08:15:23.992Z,1020.27
2018-04-17T08:16:24.014Z,1020.31
2018-04-17T08:17:24.035Z,1020.34
2018-04-17T08:18:24.056Z,1020.33
2018-04-17T08:19:24.078Z,1020.38
2018-04-17T08:20:24.105Z,1020.34
2018-04-17T08:21:24.136Z,1020.36
2018-04-17T08:22:24.160Z,1020.31
2018-04-17T08:23:24.177Z,1020.37
2018-04-17T08:24:24.200Z,1020.37
2018-04-17T08:25:24.222Z,1020.41
2018-04-17T08:26:24.240Z,1020.42
2018-04-17T08:27:24.262Z,1020.40
2018-04-17T08:28:24.283Z,1020.50
2018-04-17T08:29:24.305Z,1020.47
2018-04-17T08:30:24.340Z,1020.51
2018-04-17T08:31:24.360Z,1020.48
2018-04-17T08:32:24.381Z,1020.52
2018-04-17T08:33:24.403Z,1020.49
2018-04-17T08:34:24.424Z,1020.50
2018-04-17T08:35:24.445Z,1020.51
2018-04-17T08:36:24.480Z,1020.52
2018-04-17T08:37:24.488Z,1020.49
2018-04-17T08:38:24.509Z,1020.49
2018-04-17T08:39:24.531Z,1020.52
2018-04-17T08:40:24.554Z,1020.47
2018-04-17T08:41:24.573Z,1020.51
2018-04-17T08:42:24.595Z,1020.53
2018-04-17T08:43:24.617Z,1020.51
2018-04-17T08:44:24.639Z,1020.54
2018-04-17T08:45:24.672Z,1020.52
2018-04-17T08:46:24.693Z,1020.55
2018-04-17T08:47:24.715Z,1020.52
2018-04-17T08:48:24.737Z,1020.56
2018-04-17T08:49:24.758Z,1020.61
2018-04-17T08:50:24.780Z,1020.58
2018-04-17T08:51:24.800Z,1020.55
2018-04-17T08:52:24.822Z,1020.59
2018-04-17T08:53:24.844Z,1020.58
2018-04-17T08:54:24.921Z,1020.57
2018-04-17T08:55:24.885Z,1020.57
2018-04-17T08:56:24.908Z,1020.60
2018-04-17T08:57:24.929Z,1020.68
2018-04-17T08:58:24.953Z,1020.55
2018-04-17T08:59:24.987Z,1020.61
2018-04-17T09:00:24.994Z,1020.57
2018-04-17T09:01:25.014Z,1020.59
2018-04-17T09:02:25.039Z,1020.66
2018-04-17T09:03:25.057Z,1020.58
2018-04-17T09:04:25.079Z,1020.63
2018-04-17T09:05:25.099Z,1020.60
2018-04-17T09:06:25.121Z,1020.56
2018-04-17T09:07:25.158Z,1020.59
2018-04-17T09:08:25.165Z,1020.56
2018-04-17T09:09:25.188Z,1020.58
2018-04-17T09:10:25.209Z,1020.58
2018-04-17T09:11:25.229Z,1020.60
2018-04-17T09:12:25.251Z,1020.57
2018-04-17T09:13:25.271Z,1020.57
2018-04-17T09:14:25.293Z,1020.59
2018-04-17T09:15:25.325Z,1020.57
2018-04-17T09:16:25.346Z,1020.57
2018-04-17T09:17:25.368Z,1020.59
2018-04-17T09:18:25.390Z,1020.60
2018-04-17T09:19:25.411Z,1020.56
2018-04-17T09:20:25.447Z,1020.56
2018-04-17T09:21:25.453Z,1020.63
2018-04-17T09:22:25.475Z,1020.60
2018-04-17T09:23:25.497Z,1020.58
2018-04-17T09:24:25.525Z,1020.64
2018-04-17T09:25:25.540Z,1020.68
2018-04-17T09:26:25.561Z,1020.60
2018-04-17T09:27:25.582Z,1020.68
2018-04-17T09:28:25.604Z,1020.65
2018-04-17T09:29:25.669Z,1020.71
2018-04-17T09:30:25.647Z,1020.70
2018-04-17T09:31:25.668Z,1020.66
2018-04-17T09:32:25.689Z,1020.70
2018-04-17T09:33:25.711Z,1020.73
2018-04-17T09:34:25.739Z,1020.69
2018-04-17T09:35:25.753Z,1020.72
2018-04-17T09:36:25.776Z,1020.74
2018-04-17T09:37:25.809Z,1020.76
2018-04-17T09:38:25.831Z,1020.77
2018-04-17T09:39:25.840Z,1020.79
2018-04-17T09:40:25.874Z,1020.80
2018-04-17T09:41:25.883Z,1020.80
2018-04-17T09:42:25.919Z,1020.84
2018-04-17T09:43:25.938Z,1020.88
2018-04-17T09:44:25.980Z,1020.89
2018-04-17T09:45:25.983Z,1020.86
2018-04-17T09:46:26.001Z,1020.87
2018-04-17T09:47:26.023Z,1020.78
2018-04-17T09:48:26.047Z,1020.86
2018-04-17T09:49:26.069Z,1020.79
2018-04-17T09:50:26.087Z,1020.81
2018-04-17T09:51:26.110Z,1020.80
2018-04-17T09:52:26.131Z,1020.80
2018-04-17T09:53:26.152Z,1020.80
2018-04-17T09:54:26.173Z,1020.82
2018-04-17T09:55:26.195Z,1020.79
2018-04-17T09:56:26.216Z,1020.87
2018-04-17T09:57:26.237Z,1020.81
2018-04-17T09:58:26.271Z,1020.83
2018-04-17T09:59:26.293Z,1020.87
2018-04-17T10:00:26.314Z,1020.82
2018-04-17T10:01:26.335Z,1020.83
2018-04-17T10:02:26.357Z,1020.78
2018-04-17T10:03:26.377Z,1020.85
2018-04-17T10:04:26.400Z,1020.79
2018-04-17T10:05:26.420Z,1020.79
2018-04-17T10:06:26.441Z,1020.80
2018-04-17T10:07:26.463Z,1020.82
2018-04-17T10:08:26.488Z,1020.82
2018-04-17T10:09:26.509Z,1020.76
2018-04-17T10:10:26.541Z,1020.79
2018-04-17T10:11:26.562Z,1020.83
2018-04-17T10:12:26.584Z,1020.75
2018-04-17T10:13:26.604Z,1020.86
2018-04-17T10:14:26.626Z,1020.73
2018-04-17T10:15:26.647Z,1020.78
2018-04-17T10:16:26.669Z,1020.83
2018-04-17T10:17:26.749Z,1020.76
2018-04-17T10:18:26.712Z,1020.82
2018-04-17T10:19:26.747Z,1020.81
2018-04-17T10:20:26.769Z,1020.77
2018-04-17T10:21:26.787Z,1020.76
2018-04-17T10:22:26.809Z,1020.79
2018-04-17T10:23:26.830Z,1020.76
2018-04-17T10:24:26.864Z,1020.71
2018-04-17T10:25:26.886Z,1020.75
2018-04-17T10:26:26.911Z,1020.75
2018-04-17T10:27:26.931Z,1020.85
2018-04-17T10:28:26.962Z,1020.79
2018-04-17T10:29:26.983Z,1020.74
2018-04-17T10:30:27.019Z,1020.71
2018-04-17T10:31:27.040Z,1020.81
2018-04-17T10:32:27.062Z,1020.74
2018-04-17T10:33:27.095Z,1020.72
2018-04-17T10:34:27.116Z,1020.67
2018-04-17T10:35:27.157Z,1020.69
2018-04-17T10:36:27.172Z,1020.64
2018-04-17T10:37:27.205Z,1020.66
2018-04-17T10:38:27.227Z,1020.65
2018-04-17T10:39:27.261Z,1020.62
2018-04-17T10:40:27.283Z,1020.61
2018-04-17T10:41:27.315Z,1020.60
2018-04-17T10:42:27.340Z,1020.57
2018-04-17T10:43:27.372Z,1020.56
2018-04-17T10:44:27.410Z,1020.62
2018-04-17T10:45:27.426Z,1020.60
2018-04-17T10:46:27.486Z,1020.62
2018-04-17T10:47:27.498Z,1020.63
2018-04-17T10:48:27.530Z,1020.61
2018-04-17T10:49:27.550Z,1020.58
2018-04-17T10:50:27.585Z,1020.60
2018-04-17T10:51:27.617Z,1020.57
2018-04-17T10:52:27.651Z,1020.51
2018-04-17T10:53:27.687Z,1020.52
2018-04-17T10:54:27.718Z,1020.56
2018-04-17T10:55:27.753Z,1020.50
2018-04-17T10:56:27.787Z,1020.54
2018-04-17T10:57:27.823Z,1020.48
2018-04-17T10:58:27.868Z,1020.52
2018-04-17T10:59:27.889Z,1020.54
2018-04-17T11:00:27.934Z,1020.58
2018-04-17T11:01:27.956Z,1020.61
2018-04-17T11:02:28.003Z,1020.63
2018-04-17T11:03:28.025Z,1020.69
2018-04-17T11:04:28.060Z,1020.61
2018-04-17T11:05:28.104Z,1020.72
2018-04-17T11:06:28.139Z,1020.67
2018-04-17T11:07:28.172Z,1020.64
2018-04-17T11:08:28.206Z,1020.55
2018-04-17T11:09:28.239Z,1020.62
2018-04-17T11:10:28.312Z,1020.60
2018-04-17T11:11:28.326Z,1020.61
2018-04-17T11:12:28.354Z,1020.60
2018-04-17T11:13:28.388Z,1020.61
2018-04-17T11:14:28.422Z,1020.58
2018-04-17T11:15:28.460Z,1020.56
2018-04-17T11:16:28.503Z,1020.56
2018-04-17T11:17:28.536Z,1020.63
2018-04-17T11:18:28.576Z,1020.54
2018-04-17T11:19:28.616Z,1020.56
2018-04-17T11:20:28.650Z,1020.66
2018-04-17T11:21:28.685Z,1020.67
2018-04-17T11:22:28.717Z,1020.66
2018-04-17T11:23:28.753Z,1020.53
2018-04-17T11:24:28.798Z,1020.58
2018-04-17T11:25:28.845Z,1020.69
2018-04-17T11:26:28.866Z,1020.58
2018-04-17T11:27:28.899Z,1020.53
2018-04-17T11:28:28.946Z,1020.72
2018-04-17T11:29:28.981Z,1020.71
2018-04-17T11:30:29.033Z,1020.61
2018-04-17T11:31:29.051Z,1020.63
2018-04-17T11:32:29.082Z,1020.60
2018-04-17T11:33:29.116Z,1020.70
2018-04-17T11:34:29.154Z,1020.68
2018-04-17T11:35:29.196Z,1020.74
2018-04-17T11:36:29.230Z,1020.62
2018-04-17T11:37:29.263Z,1020.63
2018-04-17T11:38:29.298Z,1020.68
2018-04-17T11:39:29.332Z,1020.70
2018-04-17T11:40:29.366Z,1020.70
2018-04-17T11:41:29.400Z,1020.82
2018-04-17T11:42:29.445Z,1020.87
2018-04-17T11:43:29.480Z,1020.86
2018-04-17T11:44:29.513Z,1020.91
2018-04-17T11:45:29.547Z,1020.94
2018-04-17T11:46:29.581Z,1020.88
2018-04-17T11:47:29.616Z,1020.93
2018-04-17T11:48:29.649Z,1021.04
2018-04-17T11:49:29.684Z,1020.91
2018-04-17T11:50:29.717Z,1020.94
2018-04-17T11:51:29.753Z,1021.06
2018-04-17T11:52:29.787Z,1021.07
2018-04-17T11:53:29.819Z,1020.99
2018-04-17T11:54:29.852Z,1020.97
2018-04-17T11:55:29.887Z,1021.02
2018-04-17T11:56:29.920Z,1021.00
2018-04-17T11:57:30.002Z,1021.03
2018-04-17T11:58:29.977Z,1020.93
2018-04-17T11:59:30.010Z,1021.03
2018-04-17T12:00:30.049Z,1020.93
2018-04-17T12:01:30.077Z,1020.97
2018-04-17T12:02:30.113Z,1020.96
2018-04-17T12:03:30.145Z,1021.02
2018-04-17T12:04:30.191Z,1021.14
2018-04-17T12:05:30.212Z,1021.09